createdAt,value
2019-03-03T00:03:01.193Z,70.47
2019-03-03T00:06:05.592Z,63.93
2019-03-03T00:09:09.925Z,66.63
2019-03-03T00:12:14.217Z,67.67
2019-03-03T00:15:20.977Z,68.90
2019-03-03T00:18:25.361Z,61.03
2019-03-03T00:21:29.701Z,68.03
2019-03-03T00:24:34.085Z,64.30
2019-03-03T00:27:38.377Z,61.87
2019-03-03T00:30:42.853Z,64.47
2019-03-03T00:33:47.255Z,65.03
2019-03-03T00:37:28.654Z,67.60
2019-03-03T00:40:45.596Z,65.00
2019-03-03T00:43:58.283Z,63.47
2019-03-03T00:47:24.469Z,68.30
2019-03-03T00:50:38.379Z,64.37
2019-03-03T00:54:10.543Z,60.93
2019-03-03T00:57:32.348Z,55.73
2019-03-03T01:01:04.915Z,63.20
2019-03-03T01:04:14.900Z,59.40
2019-03-03T01:07:41.167Z,55.37
2019-03-03T01:11:04.400Z,58.40
2019-03-03T01:14:42.888Z,41.97
2019-03-03T01:17:53.313Z,52.53
2019-03-03T01:21:02.015Z,47.67
2019-03-03T01:24:25.581Z,44.50
2019-03-03T01:27:29.870Z,53.23
2019-03-03T01:30:34.174Z,45.73
2019-03-03T01:33:38.542Z,42.63
2019-03-03T01:36:42.914Z,40.80
2019-03-03T01:39:47.309Z,39.67
2019-03-03T01:42:51.610Z,38.97
2019-03-03T01:45:55.928Z,41.10
2019-03-03T01:49:00.240Z,34.23
2019-03-03T01:52:04.546Z,44.50
2019-03-03T01:55:09.794Z,44.00
2019-03-03T01:58:14.227Z,31.97
2019-03-03T02:01:18.535Z,38.90
2019-03-03T02:04:22.854Z,38.97
2019-03-03T02:07:27.137Z,31.00
2019-03-03T02:10:31.425Z,32.70
2019-03-03T02:13:35.724Z,36.07
2019-03-03T02:16:40.048Z,30.47
2019-03-03T02:19:44.332Z,35.37
2019-03-03T02:22:51.605Z,42.43
2019-03-03T02:25:55.914Z,36.43
2019-03-03T02:29:00.227Z,31.27
2019-03-03T02:32:06.406Z,31.17
2019-03-03T02:35:10.786Z,33.40
2019-03-03T02:38:15.298Z,31.97
2019-03-03T02:41:19.714Z,32.07
2019-03-03T02:44:27.099Z,30.13
2019-03-03T02:47:31.407Z,34.90
2019-03-03T02:50:35.910Z,35.50
2019-03-03T02:53:40.173Z,39.93
2019-03-03T02:56:44.475Z,30.40
2019-03-03T02:59:48.783Z,29.53
2019-03-03T03:02:55.029Z,31.13
2019-03-03T03:06:18.367Z,28.83
2019-03-03T03:09:28.869Z,28.03
2019-03-03T03:12:51.572Z,26.57
2019-03-03T03:16:10.874Z,27.83
2019-03-03T03:19:24.625Z,35.17
2019-03-03T03:22:47.875Z,29.83
2019-03-03T03:26:11.021Z,38.10
2019-03-03T03:29:37.169Z,30.93
2019-03-03T03:32:48.250Z,34.47
2019-03-03T03:35:58.625Z,25.07
2019-03-03T03:39:15.546Z,26.60
2019-03-03T03:42:31.380Z,25.27
2019-03-03T03:46:03.655Z,26.43
2019-03-03T03:49:21.483Z,26.60
2019-03-03T03:53:02.945Z,28.50
2019-03-03T03:56:24.541Z,24.43
2019-03-03T03:59:44.122Z,26.40
2019-03-03T04:03:07.957Z,29.90
2019-03-03T04:06:24.787Z,26.77
2019-03-03T04:09:43.217Z,25.93
2019-03-03T04:13:06.571Z,24.90
2019-03-03T04:16:33.016Z,20.70
2019-03-03T04:19:44.697Z,21.97
2019-03-03T04:23:10.487Z,22.47
2019-03-03T04:26:23.016Z,18.67
2019-03-03T04:30:01.829Z,23.93
2019-03-03T04:33:21.052Z,21.23
2019-03-03T04:37:04.062Z,20.83
2019-03-03T04:40:27.368Z,20.90
2019-03-03T04:43:49.325Z,16.33
2019-03-03T04:47:07.397Z,15.30
2019-03-03T04:50:29.518Z,13.03
2019-03-03T04:53:52.920Z,13.83
2019-03-03T04:57:19.367Z,10.60
2019-03-03T05:00:54.818Z,15.13
2019-03-03T05:04:11.470Z,12.80
2019-03-03T05:07:22.473Z,14.90
2019-03-03T05:10:45.865Z,12.10
2019-03-03T05:13:54.478Z,10.40
2019-03-03T05:17:17.753Z,9.57
2019-03-03T05:20:22.391Z,10.03
2019-03-03T05:23:26.818Z,11.20
2019-03-03T05:26:31.122Z,13.70
2019-03-03T05:29:35.871Z,14.17
2019-03-03T05:32:40.697Z,13.23
2019-03-03T05:35:45.262Z,14.60
2019-03-03T05:38:49.733Z,14.23
2019-03-03T05:41:54.250Z,18.90
2019-03-03T05:45:00.501Z,19.83
2019-03-03T05:48:05.749Z,19.83
2019-03-03T05:51:12.545Z,20.67
2019-03-03T05:54:17.012Z,22.10
2019-03-03T05:57:21.686Z,22.87
2019-03-03T06:00:26.143Z,18.27
2019-03-03T06:03:30.732Z,23.77
2019-03-03T06:06:35.112Z,25.90
2019-03-03T06:09:39.629Z,27.17
2019-03-03T06:12:44.097Z,36.33
2019-03-03T06:15:48.675Z,29.23
2019-03-03T06:18:53.394Z,30.17
2019-03-03T06:21:57.751Z,29.80
2019-03-03T06:25:02.321Z,36.03
2019-03-03T06:28:10.017Z,28.47
2019-03-03T06:31:14.569Z,31.93
2019-03-03T06:34:19.029Z,32.23
2019-03-03T06:37:23.419Z,24.03
2019-03-03T06:40:27.847Z,25.13
2019-03-03T06:43:32.198Z,29.27
2019-03-03T06:46:36.552Z,33.33
2019-03-03T06:49:40.884Z,32.30
2019-03-03T06:52:45.316Z,26.97
2019-03-03T06:55:49.923Z,25.80
2019-03-03T06:58:54.598Z,32.77
2019-03-03T07:02:00.760Z,35.13
2019-03-03T07:05:05.764Z,27.97
2019-03-03T07:08:10.150Z,33.87
2019-03-03T07:11:14.542Z,18.93
2019-03-03T07:14:19.152Z,36.57
2019-03-03T07:17:23.584Z,30.07
2019-03-03T07:20:29.340Z,39.70
2019-03-03T07:23:33.788Z,48.43
2019-03-03T07:26:38.102Z,33.63
2019-03-03T07:29:42.534Z,32.37
2019-03-03T07:33:04.834Z,34.70
2019-03-03T07:36:09.476Z,36.97
2019-03-03T07:39:18.609Z,33.87
2019-03-03T07:42:24.393Z,28.50
2019-03-03T07:45:28.736Z,35.37
2019-03-03T07:48:33.056Z,31.43
2019-03-03T07:51:37.367Z,30.50
2019-03-03T07:54:41.745Z,35.93
2019-03-03T07:57:46.969Z,41.43
2019-03-03T08:00:51.331Z,40.10
2019-03-03T08:03:55.776Z,32.13
2019-03-03T08:07:00.113Z,36.77
2019-03-03T08:10:04.904Z,36.80
2019-03-03T08:13:09.735Z,38.73
2019-03-03T08:16:14.147Z,29.20
2019-03-03T08:19:18.437Z,25.87
2019-03-03T08:22:22.791Z,33.60
2019-03-03T08:25:27.166Z,40.23
2019-03-03T08:28:31.585Z,41.03
2019-03-03T08:31:35.873Z,39.97
2019-03-03T08:34:40.410Z,37.97
2019-03-03T08:37:44.725Z,48.13
2019-03-03T08:40:49.260Z,37.80
2019-03-03T08:44:04.436Z,34.50
2019-03-03T08:47:30.875Z,31.73
2019-03-03T08:50:44.361Z,35.57
2019-03-03T08:53:55.870Z,39.23
2019-03-03T08:57:28.486Z,29.13
2019-03-03T09:00:38.801Z,38.83
2019-03-03T09:03:59.700Z,37.37
2019-03-03T09:07:26.235Z,31.80
2019-03-03T09:10:44.194Z,29.20
2019-03-03T09:13:53.944Z,33.63
2019-03-03T09:17:26.587Z,37.30
2019-03-03T09:20:52.953Z,35.17
2019-03-03T09:24:28.458Z,26.67
2019-03-03T09:28:00.856Z,30.27
2019-03-03T09:31:23.412Z,23.47
2019-03-03T09:34:58.906Z,19.23
2019-03-03T09:38:18.118Z,26.13
2019-03-03T09:41:40.232Z,28.87
2019-03-03T09:45:06.529Z,25.13
2019-03-03T09:48:31.604Z,24.73
2019-03-03T09:52:01.778Z,23.40
2019-03-03T09:55:11.546Z,24.23
2019-03-03T09:58:37.768Z,19.57
2019-03-03T10:02:10.499Z,23.93
2019-03-03T10:05:32.807Z,22.90
2019-03-03T10:08:59.152Z,17.67
2019-03-03T10:12:16.839Z,20.47
2019-03-03T10:15:43.408Z,26.80
2019-03-03T10:18:56.036Z,25.17
2019-03-03T10:22:06.520Z,26.37
2019-03-03T10:25:43.114Z,25.90
2019-03-03T10:29:22.276Z,27.47
2019-03-03T10:32:44.323Z,30.83
2019-03-03T10:36:07.952Z,26.33
2019-03-03T10:39:33.845Z,20.40
2019-03-03T10:42:55.976Z,31.13
2019-03-03T10:46:22.334Z,21.57
2019-03-03T10:49:39.039Z,22.20
2019-03-03T10:52:51.857Z,21.67
2019-03-03T10:56:27.284Z,21.33
2019-03-03T10:59:55.111Z,30.70
2019-03-03T11:03:15.519Z,19.03
2019-03-03T11:06:44.784Z,22.10
2019-03-03T11:10:11.327Z,22.67
2019-03-03T11:13:40.702Z,25.93
2019-03-03T11:17:02.767Z,26.83
2019-03-03T11:20:16.630Z,21.07
2019-03-03T11:23:39.049Z,29.13
2019-03-03T11:27:08.877Z,25.60
2019-03-03T11:30:21.910Z,24.07
2019-03-03T11:33:44.492Z,23.20
2019-03-03T11:37:05.191Z,28.30
2019-03-03T11:40:48.283Z,26.57
2019-03-03T11:44:20.600Z,18.70
2019-03-03T11:47:41.583Z,27.83
2019-03-03T11:51:19.943Z,17.03
2019-03-03T11:54:34.665Z,24.10
2019-03-03T11:58:01.121Z,22.83
2019-03-03T12:01:40.295Z,18.33
2019-03-03T12:05:03.030Z,23.27
2019-03-03T12:08:29.798Z,20.70
2019-03-03T12:11:51.913Z,17.17
2019-03-03T12:15:08.077Z,23.23
2019-03-03T12:18:29.344Z,28.97
2019-03-03T12:21:55.653Z,16.13
2019-03-03T12:25:25.204Z,22.57
2019-03-03T12:28:47.419Z,21.30
2019-03-03T12:32:28.876Z,17.13
2019-03-03T12:35:58.454Z,25.70
2019-03-03T12:39:14.262Z,27.60
2019-03-03T12:42:37.534Z,20.90
2019-03-03T12:45:59.889Z,17.37
2019-03-03T12:49:12.579Z,24.57
2019-03-03T12:52:27.079Z,20.43
2019-03-03T12:55:52.154Z,18.00
2019-03-03T12:59:26.079Z,24.80
2019-03-03T13:02:55.661Z,16.93
2019-03-03T13:06:11.903Z,17.90
2019-03-03T13:09:44.663Z,17.13
2019-03-03T13:12:56.154Z,15.90
2019-03-03T13:16:06.625Z,18.27
2019-03-03T13:19:48.787Z,14.13
2019-03-03T13:23:17.593Z,22.53
2019-03-03T13:26:50.566Z,16.93
2019-03-03T13:30:16.728Z,17.70
2019-03-03T13:33:44.331Z,25.70
2019-03-03T13:37:10.696Z,26.37
2019-03-03T13:40:35.042Z,15.17
2019-03-03T13:43:39.356Z,19.43
2019-03-03T13:46:43.785Z,18.80
2019-03-03T13:49:48.088Z,18.77
2019-03-03T13:52:52.401Z,17.77
2019-03-03T13:55:56.736Z,20.13
2019-03-03T13:59:01.060Z,24.60
2019-03-03T14:02:05.767Z,19.37
2019-03-03T14:05:10.544Z,22.33
2019-03-03T14:08:14.976Z,21.87
2019-03-03T14:11:27.757Z,24.90
2019-03-03T14:14:32.212Z,18.40
2019-03-03T14:17:36.522Z,19.37
2019-03-03T14:20:40.843Z,23.30
2019-03-03T14:23:45.143Z,23.03
2019-03-03T14:26:49.479Z,14.90
2019-03-03T14:29:53.828Z,25.83
2019-03-03T14:32:58.619Z,21.97
2019-03-03T14:36:05.807Z,24.10
2019-03-03T14:39:10.498Z,25.90
2019-03-03T14:42:15.120Z,18.13
2019-03-03T14:45:19.966Z,17.37
2019-03-03T14:48:24.301Z,17.93
2019-03-03T14:51:28.706Z,19.63
2019-03-03T14:54:33.140Z,27.07
2019-03-03T14:57:37.479Z,28.13
2019-03-03T15:00:41.844Z,21.43
2019-03-03T15:03:46.150Z,20.97
2019-03-03T15:06:50.836Z,19.37
2019-03-03T15:09:55.129Z,23.63
2019-03-03T15:13:00.084Z,17.80
2019-03-03T15:16:04.641Z,28.30
2019-03-03T15:19:09.060Z,18.43
2019-03-03T15:22:13.438Z,18.77
2019-03-03T15:25:17.865Z,19.87
2019-03-03T15:28:22.379Z,20.30
2019-03-03T15:31:26.813Z,18.60
2019-03-03T15:34:31.449Z,23.20
2019-03-03T15:37:35.806Z,21.53
2019-03-03T15:40:40.108Z,19.00
2019-03-03T15:43:44.802Z,16.23
2019-03-03T15:46:49.148Z,19.20
2019-03-03T15:49:53.676Z,20.80
2019-03-03T15:52:58.044Z,13.50
2019-03-03T15:56:02.462Z,18.33
2019-03-03T15:59:06.945Z,17.27
2019-03-03T16:02:12.455Z,14.73
2019-03-03T16:05:19.620Z,12.53
2019-03-03T16:08:23.995Z,10.80
2019-03-03T16:11:28.316Z,16.47
2019-03-03T16:14:35.507Z,14.20
2019-03-03T16:17:40.167Z,11.00
2019-03-03T16:20:44.610Z,9.27
2019-03-03T16:23:48.994Z,14.10
2019-03-03T16:26:53.559Z,12.77
2019-03-03T16:29:58.084Z,11.87
2019-03-03T16:33:02.475Z,13.97
2019-03-03T16:36:07.313Z,17.63
2019-03-03T16:39:12.290Z,12.53
2019-03-03T16:42:16.966Z,13.23
2019-03-03T16:45:21.801Z,16.97
2019-03-03T16:48:26.455Z,18.63
2019-03-03T16:51:31.104Z,17.73
2019-03-03T16:54:35.707Z,13.60
2019-03-03T16:57:40.366Z,15.07
2019-03-03T17:00:44.803Z,13.27
2019-03-03T17:03:51.075Z,12.43
2019-03-03T17:06:55.555Z,15.20
2019-03-03T17:10:00.261Z,13.97
2019-03-03T17:13:05.046Z,15.83
2019-03-03T17:16:09.368Z,18.87
2019-03-03T17:19:13.897Z,16.47
2019-03-03T17:22:18.252Z,15.10
2019-03-03T17:25:24.190Z,14.47
2019-03-03T17:28:28.600Z,17.43
2019-03-03T17:31:33.191Z,17.27
2019-03-03T17:34:37.732Z,11.70
2019-03-03T17:37:42.125Z,13.07
2019-03-03T17:40:46.512Z,12.33
2019-03-03T17:43:51.000Z,11.13
2019-03-03T17:46:55.497Z,18.13
2019-03-03T17:49:59.958Z,14.73
2019-03-03T17:53:04.609Z,13.23
2019-03-03T17:56:09.318Z,13.97
2019-03-03T17:59:13.885Z,20.73
2019-03-03T18:02:18.727Z,15.97
2019-03-03T18:05:23.635Z,18.00
2019-03-03T18:08:28.350Z,16.20
2019-03-03T18:11:32.978Z,18.80
2019-03-03T18:14:37.435Z,17.00
2019-03-03T18:17:41.869Z,23.40
2019-03-03T18:20:46.402Z,21.07
2019-03-03T18:23:50.910Z,19.63
2019-03-03T18:26:55.438Z,23.27
2019-03-03T18:30:01.881Z,22.03
2019-03-03T18:33:06.335Z,17.83
2019-03-03T18:36:10.731Z,17.33
2019-03-03T18:39:17.476Z,20.43
2019-03-03T18:42:22.089Z,15.60
2019-03-03T18:45:26.815Z,17.43
2019-03-03T18:48:34.352Z,20.43
2019-03-03T18:51:39.083Z,15.27
2019-03-03T18:54:43.824Z,18.77
2019-03-03T18:57:48.597Z,15.70
2019-03-03T19:00:53.220Z,13.40
2019-03-03T19:03:57.773Z,10.00
2019-03-03T19:07:02.340Z,14.07
2019-03-03T19:10:09.184Z,12.63
2019-03-03T19:13:13.802Z,12.30
2019-03-03T19:16:18.276Z,12.00
2019-03-03T19:19:23.025Z,11.37
2019-03-03T19:22:27.768Z,12.27
2019-03-03T19:25:32.587Z,15.47
2019-03-03T19:28:37.351Z,11.67
2019-03-03T19:31:44.924Z,13.50
2019-03-03T19:34:49.637Z,10.87
2019-03-03T19:37:54.525Z,16.90
2019-03-03T19:40:59.359Z,13.93
2019-03-03T19:44:04.666Z,12.00
2019-03-03T19:47:09.583Z,14.80
2019-03-03T19:50:15.100Z,13.57
2019-03-03T19:53:19.830Z,11.40
2019-03-03T19:56:24.831Z,13.97
2019-03-03T19:59:29.886Z,13.77
2019-03-03T20:02:34.969Z,11.43
2019-03-03T20:05:39.895Z,12.50
2019-03-03T20:08:44.845Z,9.77
2019-03-03T20:11:53.730Z,13.63
2019-03-03T20:14:58.662Z,9.73
2019-03-03T20:18:03.540Z,11.03
2019-03-03T20:21:10.932Z,8.97
2019-03-03T20:24:16.055Z,10.97
2019-03-03T20:27:20.934Z,10.03
2019-03-03T20:30:27.171Z,9.97
2019-03-03T20:33:31.817Z,14.30
2019-03-03T20:36:36.725Z,15.10
2019-03-03T20:39:41.759Z,13.90
2019-03-03T20:42:46.690Z,14.57
2019-03-03T20:45:51.466Z,11.67
2019-03-03T20:48:56.272Z,11.10
2019-03-03T20:52:00.973Z,14.97
2019-03-03T20:55:10.947Z,14.47
2019-03-03T20:58:17.578Z,14.43
2019-03-03T21:01:22.200Z,17.73
2019-03-03T21:04:26.773Z,14.40
2019-03-03T21:07:31.527Z,14.50
2019-03-03T21:10:38.575Z,14.93
2019-03-03T21:13:43.234Z,9.50
2019-03-03T21:16:47.962Z,21.30
2019-03-03T21:19:53.084Z,19.17
2019-03-03T21:22:57.578Z,11.30
2019-03-03T21:26:02.138Z,20.57
2019-03-03T21:29:06.652Z,14.77
2019-03-03T21:32:11.134Z,21.20
2019-03-03T21:35:15.666Z,29.93
2019-03-03T21:38:20.249Z,28.50
2019-03-03T21:41:24.627Z,21.20
2019-03-03T21:44:29.144Z,25.17
2019-03-03T21:47:33.622Z,22.50
2019-03-03T21:50:38.119Z,25.77
2019-03-03T21:53:44.278Z,26.50
2019-03-03T21:56:48.648Z,28.10
2019-03-03T21:59:53.160Z,30.13
2019-03-03T22:02:57.792Z,33.23
2019-03-03T22:06:02.508Z,34.10
2019-03-03T22:09:09.440Z,35.80
2019-03-03T22:12:14.906Z,37.27
2019-03-03T22:15:19.320Z,31.60
2019-03-03T22:18:23.682Z,32.53
2019-03-03T22:21:28.277Z,41.20
2019-03-03T22:24:32.733Z,29.57
2019-03-03T22:27:37.288Z,34.70
2019-03-03T22:30:41.776Z,29.03
2019-03-03T22:33:46.498Z,35.23
2019-03-03T22:36:50.978Z,34.50
2019-03-03T22:39:55.636Z,29.47
2019-03-03T22:42:59.984Z,30.67
2019-03-03T22:46:04.476Z,34.60
2019-03-03T22:49:08.924Z,26.53
2019-03-03T22:52:13.301Z,24.30
2019-03-03T22:55:18.293Z,27.73
2019-03-03T22:58:22.897Z,27.70
2019-03-03T23:01:40.495Z,28.57
2019-03-03T23:05:02.044Z,23.07
2019-03-03T23:08:53.691Z,33.90
2019-03-03T23:12:20.216Z,27.20
2019-03-03T23:15:46.185Z,25.70
2019-03-03T23:19:27.374Z,27.37
2019-03-03T23:23:02.874Z,30.80
2019-03-03T23:26:16.308Z,31.87
2019-03-03T23:29:13.790Z,22.20
2019-03-03T23:32:18.173Z,19.53
2019-03-03T23:35:22.641Z,17.27
2019-03-03T23:38:27.020Z,21.13
2019-03-03T23:41:31.428Z,19.13
2019-03-03T23:44:35.896Z,17.17
2019-03-03T23:47:40.300Z,16.67
2019-03-03T23:50:44.822Z,17.40
2019-03-03T23:53:49.464Z,15.70
2019-03-03T23:56:53.828Z,15.33
2019-03-03T23:59:58.209Z,15.67
